Latest Weather Observations for Yarram Airport

IDV60801

Issued at 5:05 am EDT Saturday 1 November 2014 (issued every 30 minutes, with the page automatically refreshed every 10 minutes)

About weather observations | Map of weather stations | Latest weather observations for VIC | Other Formats
Station Details ID: 085151 Name: YARRAM AIRPORT Lat: -38.56 Lon: 146.75 Height: 17.9 m
Data from the previous 72 hours. | See also: Recent months at Yarram Airport
Date/Time
EDT
Temp
°C
App
Temp
°C
Dew
Point
Rel
Hum
%
Delta-T
°C
Wind Press
QNH
hPa
Press
MSL
hPa
Rain
since 9 am
mm
Dir
 
Spd
km/h
Gust
km/h
Spd
kts
Gust
kts
01/05:00am 14.8 9.9 11.2 79 1.9 W 28 33 15 18 997.8 997.8 -
01/04:30am 14.9 11.5 11.3 79 1.9 W 20 26 11 14 996.6 996.6 -
01/04:00am 15.0 8.2 11.8 81 1.7 W 39 54 21 29 997.5 997.5 -
01/03:30am 15.7 8.0 12.1 79 2.0 W 44 57 24 31 997.8 997.8 -
01/03:09am 16.2 9.5 12.4 78 2.1 W 39 57 21 31 997.6 997.6 -
01/03:00am 16.6 9.8 11.9 74 2.6 W 39 52 21 28 997.6 997.6 -
01/02:30am 17.7 11.8 10.6 63 3.8 WSW 32 43 17 23 997.3 997.3 -
01/02:00am 18.3 13.6 10.7 61 4.1 W 26 35 14 19 996.9 996.9 0.0
01/01:30am 18.8 12.4 9.3 54 5.0 W 33 46 18 25 996.7 996.7 0.0
01/01:18am 19.8 13.6 7.9 46 6.1 WSW 30 48 16 26 996.3 996.3 0.0
01/01:00am 22.1 15.3 7.9 40 7.5 SW 33 43 18 23 996.3 996.3 0.0
01/12:53am 24.4 18.4 7.1 33 9.0 W 28 46 15 25 996.0 996.0 0.0
01/12:30am 24.6 19.3 6.8 32 9.3 N 24 30 13 16 994.8 994.8 0.0
01/12:00am 23.8 18.8 8.2 37 8.3 N 24 30 13 16 995.2 995.2 0.0
 
Date/Time
EDT
Temp
°C
App
Temp
°C
Dew
Point
Rel
Hum
%
Delta-T
°C
Wind Press
QNH
hPa
Press
MSL
hPa
Rain
since 9 am
mm
Dir
 
Spd
km/h
Gust
km/h
Spd
kts
Gust
kts
31/11:30pm 22.5 17.9 9.6 44 7.0 N 24 30 13 16 995.9 995.9 0.0
31/11:26pm 22.4 17.9 10.2 46 6.7 N 24 30 13 16 995.9 995.9 0.0
31/11:00pm 17.4 15.0 11.4 68 3.3 NNE 15 17 8 9 996.6 996.6 0.0
31/10:30pm 18.3 15.6 11.6 65 3.7 NNE 17 20 9 11 997.1 997.1 0.0
31/10:00pm 18.3 15.8 11.1 63 3.9 NE 15 19 8 10 997.9 997.9 0.0
31/09:30pm 18.9 16.4 11.2 61 4.2 NE 15 20 8 11 998.7 998.7 0.0
31/09:00pm 19.9 17.2 11.7 59 4.6 NE 17 20 9 11 999.2 999.2 0.0
31/08:30pm 20.6 17.8 12.6 60 4.5 NE 19 24 10 13 999.4 999.4 0.0
31/08:00pm 21.1 18.9 13.3 61 4.5 NE 17 22 9 12 999.8 999.8 0.0
31/07:30pm 20.8 19.4 14.5 67 3.7 NE 15 19 8 10 1000.2 1000.2 0.0
31/07:00pm 20.6 19.9 15.4 72 3.1 E 13 17 7 9 1000.4 1000.4 0.0
31/06:30pm 22.9 21.9 15.7 64 4.3 ENE 15 20 8 11 1000.7 1000.7 0.0
31/06:00pm 23.0 21.7 15.8 64 4.4 E 17 22 9 12 1001.0 1001.0 0.0
31/05:30pm 22.9 21.0 14.2 58 5.1 E 17 28 9 15 1001.1 1001.1 0.0
31/05:00pm 24.7 22.9 15.6 57 5.5 E 19 26 10 14 1001.3 1001.3 0.0
31/04:30pm 25.8 24.1 15.8 54 6.1 E 19 30 10 16 1001.6 1001.6 0.0
31/04:00pm 26.0 24.3 15.7 53 6.3 E 19 26 10 14 1001.9 1001.9 0.0
31/03:30pm 26.8 26.0 16.1 52 6.6 ESE 15 20 8 11 1002.3 1002.3 0.0
31/03:00pm 25.0 23.5 16.4 59 5.3 E 19 24 10 13 1003.0 1003.0 0.0
31/02:30pm 24.3 22.8 16.3 61 4.9 E 19 26 10 14 1003.8 1003.8 0.0
31/02:00pm 24.5 22.9 16.5 61 4.9 E 20 26 11 14 1004.6 1004.6 0.0
31/01:30pm 24.2 23.3 15.9 59 5.0 ENE 15 20 8 11 1005.2 1005.2 0.0
31/01:00pm 23.7 22.7 15.7 61 4.8 E 15 20 8 11 1005.8 1005.8 0.0
31/12:30pm 24.4 23.7 12.0 46 7.1 E 7 11 4 6 1006.4 1006.4 0.0
31/12:00pm 23.3 22.5 12.9 52 6.0 NE 9 17 5 9 1007.0 1007.0 0.0
31/11:30am 21.8 20.2 12.9 57 5.1 NE 13 19 7 10 1007.7 1007.7 0.0
31/11:00am 21.0 19.0 12.7 59 4.7 NE 15 20 8 11 1007.9 1007.9 0.0
31/10:30am 20.5 17.8 13.0 62 4.3 NE 19 22 10 12 1008.3 1008.3 0.0
31/10:00am 19.6 17.1 13.5 68 3.5 NNE 19 24 10 13 1008.9 1008.9 0.0
31/09:30am 17.2 14.8 12.5 74 2.6 NE 17 22 9 12 1009.2 1009.2 0.0
31/09:00am 16.7 14.6 12.5 76 2.3 NE 15 20 8 11 1009.9 1009.9 0.0
31/08:30am 15.2 12.6 12.0 81 1.7 NE 17 22 9 12 1010.4 1010.4 0.0
31/08:00am 14.2 12.4 12.1 87 1.1 NE 13 17 7 9 1010.6 1010.6 0.0
31/07:30am 11.4 9.6 10.9 97 0.3 NE 11 15 6 8 1010.8 1010.8 0.0
31/07:00am 9.0 7.1 9.0 100 0.0 NE 9 13 5 7 1010.9 1010.9 0.0
31/06:30am 7.2 4.8 6.9 98 0.1 NE 9 11 5 6 1010.9 1010.9 0.0
31/06:00am 7.1 4.6 6.5 96 0.3 NE 9 11 5 6 1011.0 1011.0 0.0
31/05:30am 7.9 5.9 7.0 94 0.4 NNE 7 9 4 5 1011.2 1011.2 0.0
31/05:00am 10.1 10.0 9.3 95 0.4 CALM 0 0 0 0 1011.2 1011.2 0.0
31/04:30am 10.6 10.7 10.0 96 0.3 CALM 0 0 0 0 1011.3 1011.3 0.0
31/04:00am 10.7 10.7 9.9 95 0.4 CALM 0 0 0 0 1011.5 1011.5 0.0
31/03:30am 11.2 11.4 10.4 95 0.4 CALM 0 0 0 0 1011.8 1011.8 0.0
31/03:00am 11.5 11.7 10.4 93 0.6 CALM 0 0 0 0 1011.9 1011.9 0.0
31/02:30am 11.4 10.4 10.3 93 0.6 WNW 6 7 3 4 1012.5 1012.5 0.0
31/02:00am 11.5 10.4 10.1 91 0.7 WNW 6 9 3 5 1012.8 1012.8 0.0
31/01:30am 12.1 10.9 10.2 88 1.0 W 7 9 4 5 1013.4 1013.4 0.0
31/01:00am 12.2 11.2 10.4 89 0.9 WNW 6 7 3 4 1013.5 1013.5 0.0
31/12:30am 12.1 10.9 10.2 88 1.0 WNW 7 9 4 5 1013.9 1013.9 0.0
31/12:00am 12.0 10.0 10.2 89 0.9 WNW 11 13 6 7 1014.0 1014.0 0.0
 
Date/Time
EDT
Temp
°C
App
Temp
°C
Dew
Point
Rel
Hum
%
Delta-T
°C
Wind Press
QNH
hPa
Press
MSL
hPa
Rain
since 9 am
mm
Dir
 
Spd
km/h
Gust
km/h
Spd
kts
Gust
kts
30/11:30pm 10.4 8.3 9.6 95 0.4 NW 11 13 6 7 1014.1 1014.1 0.0
30/11:00pm 9.9 7.5 8.7 92 0.6 NW 11 13 6 7 1014.0 1014.0 0.0
30/10:30pm 9.5 7.1 8.7 95 0.4 NNW 11 15 6 8 1014.1 1014.1 0.0
30/10:00pm 10.2 7.5 8.8 91 0.7 WSW 13 17 7 9 1014.0 1014.0 0.0
30/09:30pm 11.3 8.5 9.9 91 0.7 WSW 15 17 8 9 1014.2 1014.2 0.0
30/09:00pm 10.8 7.5 9.7 93 0.6 SW 17 19 9 10 1014.0 1014.0 0.0
30/08:30pm 11.3 8.3 9.4 88 1.0 SSW 15 19 8 10 1013.8 1013.8 0.0
30/08:00pm 12.8 9.6 10.0 83 1.4 SSW 17 26 9 14 1013.8 1013.8 0.0
30/07:30pm 13.9 10.7 9.9 77 2.1 SSW 17 24 9 13 1013.5 1013.5 0.0
30/07:00pm 15.6 12.7 9.7 68 3.1 SW 15 22 8 12 1013.1 1013.1 0.0
30/06:30pm 16.1 10.7 9.5 65 3.4 SW 28 33 15 18 1012.8 1012.8 0.0
30/06:00pm 16.8 10.6 9.5 62 3.8 SW 32 43 17 23 1012.5 1012.5 0.0
30/05:30pm 17.1 10.1 9.8 62 3.8 WSW 37 48 20 26 1012.3 1012.3 0.0
30/05:00pm 17.6 10.8 10.5 63 3.8 WSW 37 48 20 26 1012.2 1012.2 0.0
30/04:30pm 17.9 10.2 10.3 61 4.1 SW 41 50 22 27 1012.1 1012.1 0.0
30/04:00pm 18.9 12.6 11.2 61 4.2 WSW 35 44 19 24 1011.7 1011.7 0.0
30/03:30pm 19.5 13.9 11.5 60 4.4 SW 32 43 17 23 1011.8 1011.8 0.0
30/03:00pm 19.1 13.1 12.1 64 3.9 SW 35 46 19 25 1011.9 1011.9 0.0
30/02:30pm 20.5 16.1 13.0 62 4.3 WSW 28 39 15 21 1012.1 1012.1 0.0
30/02:00pm 20.0 14.5 9.3 50 5.7 WSW 28 43 15 23 1012.3 1012.3 0.0
30/01:44pm 20.1 14.8 9.9 52 5.5 WSW 28 46 15 25 1012.4 1012.4 0.0
30/01:30pm 20.1 14.5 11.6 58 4.7 WSW 32 41 17 22 1012.6 1012.6 0.0
30/01:00pm 19.1 14.2 10.1 56 4.8 W 26 39 14 21 1013.1 1013.1 0.0
30/12:30pm 19.1 14.1 10.9 59 4.5 W 28 41 15 22 1013.2 1013.2 0.0
30/12:00pm 19.0 14.4 11.1 60 4.3 W 26 35 14 19 1013.2 1013.2 0.0
30/11:30am 18.5 14.3 11.1 62 4.0 W 24 33 13 18 1013.5 1013.5 0.0
30/11:00am 17.9 12.6 10.0 60 4.2 W 28 37 15 20 1014.1 1014.1 0.0
30/10:30am 17.7 13.1 11.0 65 3.6 WSW 26 33 14 18 1014.2 1014.2 0.0
30/10:00am 17.3 11.9 9.5 60 4.1 WNW 28 39 15 21 1014.2 1014.2 0.0
30/09:30am 16.9 11.7 10.1 64 3.6 W 28 35 15 19 1014.1 1014.1 0.0
30/09:00am 16.4 11.1 9.8 65 3.5 WNW 28 37 15 20 1014.1 1014.1 0.0
30/08:30am 16.0 11.6 10.3 69 3.0 WNW 24 33 13 18 1014.3 1014.3 0.0
30/08:00am 15.0 11.4 10.6 75 2.3 WNW 20 28 11 15 1014.1 1014.1 0.0
30/07:30am 12.6 11.8 11.8 95 0.4 NNE 7 9 4 5 1014.1 1014.1 0.0
30/07:00am 11.6 10.8 11.0 96 0.3 NNE 6 9 3 5 1013.7 1013.7 0.0
30/06:30am 11.3 10.7 10.4 94 0.5 NNE 4 9 2 5 1013.4 1013.4 0.0
30/06:00am 11.7 11.9 10.6 93 0.6 CALM 0 2 0 1 1013.5 1013.5 0.0
30/05:30am 12.5 12.8 10.9 90 0.8 CALM 0 2 0 1 1013.6 1013.6 0.0
30/05:00am 13.0 12.2 11.1 88 1.0 W 6 9 3 5 1013.6 1013.6 0.0
30/04:30am 13.2 11.9 11.1 87 1.1 WNW 9 11 5 6 1013.6 1013.6 0.0
30/04:00am 13.4 11.7 11.1 86 1.2 NW 11 15 6 8 1013.9 1013.9 0.0
30/03:30am 13.1 11.0 11.0 87 1.1 NW 13 17 7 9 1013.9 1013.9 0.0
30/03:00am 12.8 11.4 10.9 88 1.0 NW 9 13 5 7 1014.1 1014.1 0.0
30/02:30am 13.0 10.7 10.5 85 1.3 WNW 13 15 7 8 1014.3 1014.3 0.0
30/02:00am 13.3 11.5 10.7 84 1.4 WNW 11 15 6 8 1014.8 1014.8 0.0
30/01:30am 12.9 11.3 10.3 84 1.3 WNW 9 11 5 6 1014.9 1014.9 0.0
30/01:00am 12.9 11.4 10.4 85 1.3 NW 9 11 5 6 1015.2 1015.2 0.0
30/12:30am 13.2 11.7 10.6 84 1.4 N 9 11 5 6 1015.4 1015.4 0.0
30/12:00am 13.2 11.5 10.0 81 1.6 N 9 13 5 7 1015.6 1015.6 0.0
 
Date/Time
EDT
Temp
°C
App
Temp
°C
Dew
Point
Rel
Hum
%
Delta-T
°C
Wind Press
QNH
hPa
Press
MSL
hPa
Rain
since 9 am
mm
Dir
 
Spd
km/h
Gust
km/h
Spd
kts
Gust
kts
29/11:30pm 13.3 11.3 10.1 81 1.7 NNW 11 17 6 9 1015.8 1015.8 0.0
29/11:00pm 12.5 9.8 10.4 87 1.1 NW 15 17 8 9 1016.0 1016.0 0.0
29/10:30pm 12.2 9.8 10.1 87 1.1 NNW 13 17 7 9 1016.1 1016.1 0.0
29/10:00pm 10.4 8.2 9.3 93 0.5 NNW 11 15 6 8 1016.1 1016.1 0.0
29/09:30pm 10.6 7.9 9.0 90 0.8 WNW 13 17 7 9 1016.0 1016.0 0.0
29/09:00pm 11.7 8.9 10.1 90 0.8 WSW 15 20 8 11 1015.7 1015.7 0.0
29/08:30pm 12.4 8.8 10.5 88 1.0 SW 20 24 11 13 1015.4 1015.4 0.0
29/08:00pm 13.0 9.3 10.2 83 1.4 SW 20 28 11 15 1015.3 1015.3 0.0
29/07:30pm 14.1 10.8 9.7 75 2.3 SW 17 20 9 11 1015.1 1015.1 0.0
29/07:00pm 15.4 11.3 10.0 70 2.8 SW 22 26 12 14 1014.9 1014.9 0.0
29/06:30pm 16.2 12.2 10.3 68 3.1 SW 22 30 12 16 1014.6 1014.6 0.0
29/06:00pm 17.1 12.8 10.9 67 3.3 SW 24 30 13 16 1014.4 1014.4 0.0
29/05:30pm 17.5 13.9 10.6 64 3.7 SW 20 30 11 16 1014.3 1014.3 0.0
29/05:00pm 17.8 13.4 10.4 62 4.0 SW 24 32 13 17 1014.4 1014.4 0.0
29/04:30pm 17.8 13.3 10.2 61 4.0 WSW 24 33 13 18 1014.5 1014.5 0.0
29/04:00pm 18.1 13.5 11.0 63 3.8 WSW 26 33 14 18 1014.6 1014.6 0.0
29/03:30pm 18.8 14.2 12.3 66 3.6 WSW 28 35 15 19 1014.7 1014.7 0.0
29/03:00pm 18.0 14.0 10.6 62 4.0 W 22 32 12 17 1014.9 1014.9 0.0
29/02:30pm 18.1 12.6 9.2 56 4.7 W 28 39 15 21 1015.2 1015.2 0.0
29/02:00pm 17.9 12.5 9.5 58 4.4 W 28 41 15 22 1015.5 1015.5 0.0
29/01:30pm 17.1 11.6 9.0 59 4.2 W 28 41 15 22 1015.8 1015.8 0.0
29/01:00pm 16.3 10.5 9.5 64 3.5 W 30 39 16 21 1016.1 1016.1 0.0
29/12:30pm 16.1 10.5 8.8 62 3.7 W 28 41 15 22 1016.2 1016.2 0.0
29/12:00pm 16.2 11.9 9.4 64 3.5 WNW 22 33 12 18 1016.6 1016.6 0.0
29/11:30am 15.8 11.6 9.9 68 3.1 W 22 32 12 17 1016.9 1016.9 0.0
29/11:00am 15.4 10.7 9.1 66 3.2 W 24 33 13 18 1017.1 1017.1 0.0
29/10:30am 14.9 11.0 9.5 70 2.8 W 20 30 11 16 1017.2 1017.2 0.0
29/10:00am 14.8 10.6 9.8 72 2.6 WNW 22 32 12 17 1017.4 1017.4 0.0
29/09:30am 14.1 10.3 9.7 75 2.3 W 20 30 11 16 1017.4 1017.4 0.0
29/09:00am 14.2 9.4 9.0 71 2.6 W 24 32 13 17 1017.3 1017.3 0.2
29/08:30am 13.7 9.0 9.2 74 2.3 W 24 33 13 18 1017.3 1017.3 0.2
29/08:00am 13.3 9.5 9.2 76 2.1 W 19 26 10 14 1017.1 1017.1 0.2
29/07:30am 12.2 9.1 8.9 80 1.7 WNW 15 20 8 11 1017.2 1017.2 0.2
29/07:00am 11.2 8.5 8.9 86 1.1 WNW 13 17 7 9 1017.0 1017.0 0.2
29/06:30am 10.2 7.3 8.1 87 1.0 WNW 13 19 7 10 1016.6 1016.6 0.2
29/06:00am 9.8 6.5 7.9 88 0.9 WNW 15 19 8 10 1016.2 1016.2 0.2
29/05:30am 10.1 6.8 8.0 87 1.0 WNW 15 17 8 9 1016.1 1016.1 0.2

Other Formats:

Comma delimited format used in spreadsheet applications
http://www.bom.gov.au/fwo/IDV60801/IDV60801.95890.axf

JavaScript Object Notation format (JSON) in row-major order
http://www.bom.gov.au/fwo/IDV60801/IDV60801.95890.json